sensor_id;sensor_type;location;lat;lon;timestamp;temperature;humidity
53053;DHT22;38934;52.690;6.184;2023-03-19T00:00:06;10.20;99.90
53053;DHT22;38934;52.690;6.184;2023-03-19T00:02:35;10.20;99.90
53053;DHT22;38934;52.690;6.184;2023-03-19T00:05:02;10.50;99.90
53053;DHT22;38934;52.690;6.184;2023-03-19T00:07:28;10.20;99.90
53053;DHT22;38934;52.690;6.184;2023-03-19T00:09:54;10.30;99.90
53053;DHT22;38934;52.690;6.184;2023-03-19T00:12:20;10.30;99.90
53053;DHT22;38934;52.690;6.184;2023-03-19T00:14:47;10.30;99.90
53053;DHT22;38934;52.690;6.184;2023-03-19T00:17:13;10.30;99.90
53053;DHT22;38934;52.690;6.184;2023-03-19T00:19:40;10.30;99.90
53053;DHT22;38934;52.690;6.184;2023-03-19T00:22:06;10.30;99.90
53053;DHT22;38934;52.690;6.184;2023-03-19T00:24:31;10.30;99.90
53053;DHT22;38934;52.690;6.184;2023-03-19T00:26:57;10.30;99.90
53053;DHT22;38934;52.690;6.184;2023-03-19T00:29:23;10.40;99.90
53053;DHT22;38934;52.690;6.184;2023-03-19T00:31:49;10.40;99.90
53053;DHT22;38934;52.690;6.184;2023-03-19T00:34:14;10.40;99.90
53053;DHT22;38934;52.690;6.184;2023-03-19T00:36:45;10.90;99.90
53053;DHT22;38934;52.690;6.184;2023-03-19T00:39:11;10.40;99.90
53053;DHT22;38934;52.690;6.184;2023-03-19T00:41:37;10.40;99.90
53053;DHT22;38934;52.690;6.184;2023-03-19T00:44:03;10.40;99.90
53053;DHT22;38934;52.690;6.184;2023-03-19T00:46:30;10.40;99.90
53053;DHT22;38934;52.690;6.184;2023-03-19T00:48:56;10.40;99.90
53053;DHT22;38934;52.690;6.184;2023-03-19T00:51:23;10.40;99.90
53053;DHT22;38934;52.690;6.184;2023-03-19T00:53:50;10.10;99.90
53053;DHT22;38934;52.690;6.184;2023-03-19T00:56:16;10.60;99.90
53053;DHT22;38934;52.690;6.184;2023-03-19T00:58:46;10.40;99.90
53053;DHT22;38934;52.690;6.184;2023-03-19T01:01:14;10.90;99.90
53053;DHT22;38934;52.690;6.184;2023-03-19T01:03:40;10.40;99.90
53053;DHT22;38934;52.690;6.184;2023-03-19T01:06:06;10.40;99.90
53053;DHT22;38934;52.690;6.184;2023-03-19T01:08:32;10.40;99.90
53053;DHT22;38934;52.690;6.184;2023-03-19T01:11:12;10.40;99.90
53053;DHT22;38934;52.690;6.184;2023-03-19T01:13:39;10.40;99.90
53053;DHT22;38934;52.690;6.184;2023-03-19T01:16:07;10.40;99.90
53053;DHT22;38934;52.690;6.184;2023-03-19T01:18:33;10.30;99.90
53053;DHT22;38934;52.690;6.184;2023-03-19T01:20:58;10.20;99.90
53053;DHT22;38934;52.690;6.184;2023-03-19T01:23:25;10.30;99.90
53053;DHT22;38934;52.690;6.184;2023-03-19T01:25:51;10.40;99.90
53053;DHT22;38934;52.690;6.184;2023-03-19T01:28:17;10.50;99.90
53053;DHT22;38934;52.690;6.184;2023-03-19T01:30:43;10.20;99.90
53053;DHT22;38934;52.690;6.184;2023-03-19T01:33:08;10.80;99.90
53053;DHT22;38934;52.690;6.184;2023-03-19T01:35:34;10.10;99.90
53053;DHT22;38934;52.690;6.184;2023-03-19T01:38:00;10.70;99.90
53053;DHT22;38934;52.690;6.184;2023-03-19T01:40:25;10.00;99.90
53053;DHT22;38934;52.690;6.184;2023-03-19T01:43:13;10.00;99.90
53053;DHT22;38934;52.690;6.184;2023-03-19T01:45:41;10.00;99.90
53053;DHT22;38934;52.690;6.184;2023-03-19T01:48:20;10.00;99.90
53053;DHT22;38934;52.690;6.184;2023-03-19T01:50:48;10.00;99.90
53053;DHT22;38934;52.690;6.184;2023-03-19T01:53:16;10.00;99.90
53053;DHT22;38934;52.690;6.184;2023-03-19T01:55:43;9.90;99.90
53053;DHT22;38934;52.690;6.184;2023-03-19T01:58:10;10.00;99.90
53053;DHT22;38934;52.690;6.184;2023-03-19T02:00:36;9.90;99.90
53053;DHT22;38934;52.690;6.184;2023-03-19T02:03:03;9.90;99.90
53053;DHT22;38934;52.690;6.184;2023-03-19T02:05:30;9.90;99.90
53053;DHT22;38934;52.690;6.184;2023-03-19T02:07:59;9.90;99.90
53053;DHT22;38934;52.690;6.184;2023-03-19T02:10:28;9.90;99.90
53053;DHT22;38934;52.690;6.184;2023-03-19T02:12:54;9.90;99.90
53053;DHT22;38934;52.690;6.184;2023-03-19T02:15:20;9.90;99.90
53053;DHT22;38934;52.690;6.184;2023-03-19T02:17:46;10.10;99.90
53053;DHT22;38934;52.690;6.184;2023-03-19T02:20:31;10.00;99.90
53053;DHT22;38934;52.690;6.184;2023-03-19T02:23:17;9.90;99.90
53053;DHT22;38934;52.690;6.184;2023-03-19T02:28:15;9.90;99.90
53053;DHT22;38934;52.690;6.184;2023-03-19T02:30:43;9.90;99.90
53053;DHT22;38934;52.690;6.184;2023-03-19T02:33:13;9.90;99.90
53053;DHT22;38934;52.690;6.184;2023-03-19T02:35:41;10.10;99.90
53053;DHT22;38934;52.690;6.184;2023-03-19T02:38:07;9.90;99.90
53053;DHT22;38934;52.690;6.184;2023-03-19T02:40:40;9.90;99.90
53053;DHT22;38934;52.690;6.184;2023-03-19T02:43:08;9.90;99.90
53053;DHT22;38934;52.690;6.184;2023-03-19T02:45:34;9.90;99.90
53053;DHT22;38934;52.690;6.184;2023-03-19T02:47:59;9.80;99.90
53053;DHT22;38934;52.690;6.184;2023-03-19T02:50:25;9.80;99.90
53053;DHT22;38934;52.690;6.184;2023-03-19T02:52:51;9.90;99.90
53053;DHT22;38934;52.690;6.184;2023-03-19T02:55:17;9.80;99.90
53053;DHT22;38934;52.690;6.184;2023-03-19T02:57:44;9.70;99.90
53053;DHT22;38934;52.690;6.184;2023-03-19T03:00:11;9.70;99.90
53053;DHT22;38934;52.690;6.184;2023-03-19T03:02:37;9.60;99.90
53053;DHT22;38934;52.690;6.184;2023-03-19T03:05:03;9.60;99.90
53053;DHT22;38934;52.690;6.184;2023-03-19T03:07:29;9.60;99.90
53053;DHT22;38934;52.690;6.184;2023-03-19T03:09:55;9.70;99.90
53053;DHT22;38934;52.690;6.184;2023-03-19T03:12:21;9.70;99.90
53053;DHT22;38934;52.690;6.184;2023-03-19T03:14:47;9.70;99.90
53053;DHT22;38934;52.690;6.184;2023-03-19T03:17:13;9.70;99.90
53053;DHT22;38934;52.690;6.184;2023-03-19T03:19:38;9.70;99.90
53053;DHT22;38934;52.690;6.184;2023-03-19T03:22:04;9.80;99.90
53053;DHT22;38934;52.690;6.184;2023-03-19T03:24:30;9.80;99.90
53053;DHT22;38934;52.690;6.184;2023-03-19T03:26:56;9.80;99.90
53053;DHT22;38934;52.690;6.184;2023-03-19T03:29:21;9.80;99.90
53053;DHT22;38934;52.690;6.184;2023-03-19T03:31:47;9.80;99.90
53053;DHT22;38934;52.690;6.184;2023-03-19T03:34:13;9.80;99.90
53053;DHT22;38934;52.690;6.184;2023-03-19T03:36:38;9.80;99.90
53053;DHT22;38934;52.690;6.184;2023-03-19T03:39:04;9.80;99.90
53053;DHT22;38934;52.690;6.184;2023-03-19T03:41:31;10.00;99.90
53053;DHT22;38934;52.690;6.184;2023-03-19T03:43:57;9.80;99.90
53053;DHT22;38934;52.690;6.184;2023-03-19T03:46:23;10.10;99.90
53053;DHT22;38934;52.690;6.184;2023-03-19T03:48:48;9.80;99.90
53053;DHT22;38934;52.690;6.184;2023-03-19T03:51:17;10.10;99.90
53053;DHT22;38934;52.690;6.184;2023-03-19T03:53:42;9.70;99.90
53053;DHT22;38934;52.690;6.184;2023-03-19T03:56:08;9.60;99.90
53053;DHT22;38934;52.690;6.184;2023-03-19T03:58:34;9.70;99.90
53053;DHT22;38934;52.690;6.184;2023-03-19T04:00:59;9.50;99.90
53053;DHT22;38934;52.690;6.184;2023-03-19T04:03:25;9.50;99.90
53053;DHT22;38934;52.690;6.184;2023-03-19T04:05:51;9.50;99.90
53053;DHT22;38934;52.690;6.184;2023-03-19T04:08:17;9.50;99.90
53053;DHT22;38934;52.690;6.184;2023-03-19T04:10:44;9.40;99.90
53053;DHT22;38934;52.690;6.184;2023-03-19T04:13:10;9.40;99.90
53053;DHT22;38934;52.690;6.184;2023-03-19T04:15:40;9.40;99.90
53053;DHT22;38934;52.690;6.184;2023-03-19T04:18:07;9.30;99.90
53053;DHT22;38934;52.690;6.184;2023-03-19T04:20:33;9.30;99.90
53053;DHT22;38934;52.690;6.184;2023-03-19T04:23:01;9.30;99.90
53053;DHT22;38934;52.690;6.184;2023-03-19T04:25:27;9.70;99.90
53053;DHT22;38934;52.690;6.184;2023-03-19T04:27:56;9.30;99.90
53053;DHT22;38934;52.690;6.184;2023-03-19T04:30:21;9.20;99.90
53053;DHT22;38934;52.690;6.184;2023-03-19T04:32:47;9.20;99.90
53053;DHT22;38934;52.690;6.184;2023-03-19T04:35:13;9.20;99.90
53053;DHT22;38934;52.690;6.184;2023-03-19T04:37:39;9.20;99.90
53053;DHT22;38934;52.690;6.184;2023-03-19T04:40:05;9.20;99.90
53053;DHT22;38934;52.690;6.184;2023-03-19T04:42:31;9.20;99.90
53053;DHT22;38934;52.690;6.184;2023-03-19T04:44:57;9.20;99.90
53053;DHT22;38934;52.690;6.184;2023-03-19T04:47:22;9.10;99.90
53053;DHT22;38934;52.690;6.184;2023-03-19T04:49:48;9.10;99.90
53053;DHT22;38934;52.690;6.184;2023-03-19T04:52:14;9.00;99.90
53053;DHT22;38934;52.690;6.184;2023-03-19T04:54:39;9.00;99.90
53053;DHT22;38934;52.690;6.184;2023-03-19T04:57:05;9.00;99.90
53053;DHT22;38934;52.690;6.184;2023-03-19T04:59:31;8.90;99.90
53053;DHT22;38934;52.690;6.184;2023-03-19T05:01:57;8.80;99.90
53053;DHT22;38934;52.690;6.184;2023-03-19T05:04:22;8.80;99.90
53053;DHT22;38934;52.690;6.184;2023-03-19T05:06:49;8.70;99.90
53053;DHT22;38934;52.690;6.184;2023-03-19T05:09:15;8.70;99.90
53053;DHT22;38934;52.690;6.184;2023-03-19T05:11:40;8.60;99.90
53053;DHT22;38934;52.690;6.184;2023-03-19T05:14:06;8.50;99.90
53053;DHT22;38934;52.690;6.184;2023-03-19T05:16:33;8.50;99.90
53053;DHT22;38934;52.690;6.184;2023-03-19T05:19:00;9.00;99.90
53053;DHT22;38934;52.690;6.184;2023-03-19T05:21:25;8.50;99.90
53053;DHT22;38934;52.690;6.184;2023-03-19T05:23:51;8.30;99.90
53053;DHT22;38934;52.690;6.184;2023-03-19T05:26:19;8.30;99.90
53053;DHT22;38934;52.690;6.184;2023-03-19T05:28:45;8.30;99.90
53053;DHT22;38934;52.690;6.184;2023-03-19T05:31:11;8.30;99.90
53053;DHT22;38934;52.690;6.184;2023-03-19T05:33:37;8.30;99.90
53053;DHT22;38934;52.690;6.184;2023-03-19T05:36:02;8.20;99.90
53053;DHT22;38934;52.690;6.184;2023-03-19T05:38:29;8.20;99.90
53053;DHT22;38934;52.690;6.184;2023-03-19T05:40:55;8.20;99.90
53053;DHT22;38934;52.690;6.184;2023-03-19T05:43:20;8.10;99.90
53053;DHT22;38934;52.690;6.184;2023-03-19T05:45:50;8.10;99.90
53053;DHT22;38934;52.690;6.184;2023-03-19T05:48:19;8.10;99.90
53053;DHT22;38934;52.690;6.184;2023-03-19T05:50:45;8.10;99.90
53053;DHT22;38934;52.690;6.184;2023-03-19T05:53:11;8.10;99.90
53053;DHT22;38934;52.690;6.184;2023-03-19T05:55:36;8.10;99.90
53053;DHT22;38934;52.690;6.184;2023-03-19T05:58:02;8.00;99.90
53053;DHT22;38934;52.690;6.184;2023-03-19T06:00:28;8.00;99.90
53053;DHT22;38934;52.690;6.184;2023-03-19T06:02:54;8.30;99.90
53053;DHT22;38934;52.690;6.184;2023-03-19T06:05:20;8.00;99.90
53053;DHT22;38934;52.690;6.184;2023-03-19T06:07:46;8.00;99.90
53053;DHT22;38934;52.690;6.184;2023-03-19T06:10:12;7.90;99.90
53053;DHT22;38934;52.690;6.184;2023-03-19T06:12:38;7.90;99.90
53053;DHT22;38934;52.690;6.184;2023-03-19T06:15:03;7.90;99.90
53053;DHT22;38934;52.690;6.184;2023-03-19T06:17:30;7.90;99.90
53053;DHT22;38934;52.690;6.184;2023-03-19T06:19:56;7.90;99.90
53053;DHT22;38934;52.690;6.184;2023-03-19T06:22:22;7.90;99.90
53053;DHT22;38934;52.690;6.184;2023-03-19T06:24:47;7.90;99.90
53053;DHT22;38934;52.690;6.184;2023-03-19T06:27:13;8.20;99.90
53053;DHT22;38934;52.690;6.184;2023-03-19T06:29:38;7.90;99.90
53053;DHT22;38934;52.690;6.184;2023-03-19T06:32:04;8.30;99.90
53053;DHT22;38934;52.690;6.184;2023-03-19T06:34:30;7.90;99.90
53053;DHT22;38934;52.690;6.184;2023-03-19T06:36:57;7.90;99.90
53053;DHT22;38934;52.690;6.184;2023-03-19T06:39:23;8.00;99.90
53053;DHT22;38934;52.690;6.184;2023-03-19T06:41:49;8.00;99.90
53053;DHT22;38934;52.690;6.184;2023-03-19T06:44:16;8.00;99.90
53053;DHT22;38934;52.690;6.184;2023-03-19T06:46:41;8.10;99.90
53053;DHT22;38934;52.690;6.184;2023-03-19T06:49:07;8.10;99.90
53053;DHT22;38934;52.690;6.184;2023-03-19T06:51:32;8.20;99.90
53053;DHT22;38934;52.690;6.184;2023-03-19T06:53:58;8.30;99.90
53053;DHT22;38934;52.690;6.184;2023-03-19T06:56:24;8.30;99.90
53053;DHT22;38934;52.690;6.184;2023-03-19T06:58:51;8.40;99.90
53053;DHT22;38934;52.690;6.184;2023-03-19T07:01:17;8.50;99.90
53053;DHT22;38934;52.690;6.184;2023-03-19T07:03:43;8.60;99.90
53053;DHT22;38934;52.690;6.184;2023-03-19T07:06:09;8.60;99.90
53053;DHT22;38934;52.690;6.184;2023-03-19T07:08:34;8.70;99.90
53053;DHT22;38934;52.690;6.184;2023-03-19T07:11:05;8.70;99.90
53053;DHT22;38934;52.690;6.184;2023-03-19T07:13:31;8.80;99.90
53053;DHT22;38934;52.690;6.184;2023-03-19T07:15:58;8.80;99.90
53053;DHT22;38934;52.690;6.184;2023-03-19T07:18:24;9.50;99.90
53053;DHT22;38934;52.690;6.184;2023-03-19T07:20:50;9.20;99.90
53053;DHT22;38934;52.690;6.184;2023-03-19T07:23:17;9.00;99.90
53053;DHT22;38934;52.690;6.184;2023-03-19T07:25:43;9.10;99.90
53053;DHT22;38934;52.690;6.184;2023-03-19T07:28:08;9.10;99.90
53053;DHT22;38934;52.690;6.184;2023-03-19T07:30:34;9.30;99.90
53053;DHT22;38934;52.690;6.184;2023-03-19T07:33:00;9.50;99.90
53053;DHT22;38934;52.690;6.184;2023-03-19T07:35:26;9.60;99.90
53053;DHT22;38934;52.690;6.184;2023-03-19T07:37:51;9.70;99.90
53053;DHT22;38934;52.690;6.184;2023-03-19T07:40:17;9.90;99.90
53053;DHT22;38934;52.690;6.184;2023-03-19T07:42:43;10.00;99.90
53053;DHT22;38934;52.690;6.184;2023-03-19T07:45:09;10.10;99.90
53053;DHT22;38934;52.690;6.184;2023-03-19T07:47:35;10.10;99.90
53053;DHT22;38934;52.690;6.184;2023-03-19T07:50:00;10.10;99.90
53053;DHT22;38934;52.690;6.184;2023-03-19T07:52:26;10.20;99.90
53053;DHT22;38934;52.690;6.184;2023-03-19T07:54:52;10.50;99.90
53053;DHT22;38934;52.690;6.184;2023-03-19T07:57:18;10.20;99.90
53053;DHT22;38934;52.690;6.184;2023-03-19T07:59:44;10.20;99.90
53053;DHT22;38934;52.690;6.184;2023-03-19T08:02:11;10.20;99.90
53053;DHT22;38934;52.690;6.184;2023-03-19T08:04:36;10.30;99.90
53053;DHT22;38934;52.690;6.184;2023-03-19T08:07:03;10.30;99.90
53053;DHT22;38934;52.690;6.184;2023-03-19T08:09:29;10.30;99.90
53053;DHT22;38934;52.690;6.184;2023-03-19T08:11:55;10.30;99.90
53053;DHT22;38934;52.690;6.184;2023-03-19T08:14:20;10.30;99.90
53053;DHT22;38934;52.690;6.184;2023-03-19T08:16:49;10.40;99.90
53053;DHT22;38934;52.690;6.184;2023-03-19T08:19:15;10.40;99.90
53053;DHT22;38934;52.690;6.184;2023-03-19T08:21:41;10.50;99.90
53053;DHT22;38934;52.690;6.184;2023-03-19T08:24:07;10.60;99.90
53053;DHT22;38934;52.690;6.184;2023-03-19T08:26:33;10.70;99.90
53053;DHT22;38934;52.690;6.184;2023-03-19T08:28:59;10.90;99.90
53053;DHT22;38934;52.690;6.184;2023-03-19T08:31:25;11.00;99.90
53053;DHT22;38934;52.690;6.184;2023-03-19T08:33:51;10.90;99.90
53053;DHT22;38934;52.690;6.184;2023-03-19T08:36:16;11.30;99.90
53053;DHT22;38934;52.690;6.184;2023-03-19T08:38:42;11.00;99.90
53053;DHT22;38934;52.690;6.184;2023-03-19T08:41:09;11.00;99.90
53053;DHT22;38934;52.690;6.184;2023-03-19T08:43:35;11.10;99.90
53053;DHT22;38934;52.690;6.184;2023-03-19T08:46:03;11.00;99.90
53053;DHT22;38934;52.690;6.184;2023-03-19T08:48:29;11.10;99.90
53053;DHT22;38934;52.690;6.184;2023-03-19T08:50:56;11.10;99.90
53053;DHT22;38934;52.690;6.184;2023-03-19T08:53:23;11.00;99.90
53053;DHT22;38934;52.690;6.184;2023-03-19T08:55:53;11.00;99.90
53053;DHT22;38934;52.690;6.184;2023-03-19T08:58:19;11.10;99.90
53053;DHT22;38934;52.690;6.184;2023-03-19T09:00:46;11.10;99.90
53053;DHT22;38934;52.690;6.184;2023-03-19T09:03:12;11.00;99.90
53053;DHT22;38934;52.690;6.184;2023-03-19T09:05:37;11.60;99.90
53053;DHT22;38934;52.690;6.184;2023-03-19T09:08:03;11.10;99.90
53053;DHT22;38934;52.690;6.184;2023-03-19T09:10:29;11.10;99.90
53053;DHT22;38934;52.690;6.184;2023-03-19T09:12:55;11.20;99.90
53053;DHT22;38934;52.690;6.184;2023-03-19T09:15:21;11.20;99.90
53053;DHT22;38934;52.690;6.184;2023-03-19T09:17:46;11.20;99.90
53053;DHT22;38934;52.690;6.184;2023-03-19T09:20:13;11.30;99.90
53053;DHT22;38934;52.690;6.184;2023-03-19T09:22:39;11.20;99.90
53053;DHT22;38934;52.690;6.184;2023-03-19T09:25:05;11.30;99.90
53053;DHT22;38934;52.690;6.184;2023-03-19T09:27:31;11.30;99.90
53053;DHT22;38934;52.690;6.184;2023-03-19T09:29:57;11.40;99.90
53053;DHT22;38934;52.690;6.184;2023-03-19T09:32:22;11.30;99.90
53053;DHT22;38934;52.690;6.184;2023-03-19T09:34:48;11.30;99.90
53053;DHT22;38934;52.690;6.184;2023-03-19T09:37:14;11.20;99.90
53053;DHT22;38934;52.690;6.184;2023-03-19T09:39:40;11.20;99.90
53053;DHT22;38934;52.690;6.184;2023-03-19T09:44:57;11.10;99.90
53053;DHT22;38934;52.690;6.184;2023-03-19T09:49:52;11.20;99.90
53053;DHT22;38934;52.690;6.184;2023-03-19T09:57:49;11.20;99.90
53053;DHT22;38934;52.690;6.184;2023-03-19T10:00:23;11.20;99.90
53053;DHT22;38934;52.690;6.184;2023-03-19T10:03:04;11.30;99.90
53053;DHT22;38934;52.690;6.184;2023-03-19T10:05:56;11.30;99.90
53053;DHT22;38934;52.690;6.184;2023-03-19T10:14:28;11.40;99.90
53053;DHT22;38934;52.690;6.184;2023-03-19T10:17:02;11.50;99.90
53053;DHT22;38934;52.690;6.184;2023-03-19T10:19:46;11.50;99.90
53053;DHT22;38934;52.690;6.184;2023-03-19T10:22:28;11.50;99.90
53053;DHT22;38934;52.690;6.184;2023-03-19T10:24:56;11.40;99.90
53053;DHT22;38934;52.690;6.184;2023-03-19T10:27:26;11.40;99.90
53053;DHT22;38934;52.690;6.184;2023-03-19T10:29:53;11.50;99.90
53053;DHT22;38934;52.690;6.184;2023-03-19T10:32:33;11.50;99.90
53053;DHT22;38934;52.690;6.184;2023-03-19T10:35:18;11.60;99.90
53053;DHT22;38934;52.690;6.184;2023-03-19T10:37:45;11.70;99.90
53053;DHT22;38934;52.690;6.184;2023-03-19T10:40:34;11.70;99.90
53053;DHT22;38934;52.690;6.184;2023-03-19T10:43:17;11.80;99.90
53053;DHT22;38934;52.690;6.184;2023-03-19T10:45:45;11.80;99.90
53053;DHT22;38934;52.690;6.184;2023-03-19T10:48:18;11.90;99.90
53053;DHT22;38934;52.690;6.184;2023-03-19T10:50:52;11.90;99.90
53053;DHT22;38934;52.690;6.184;2023-03-19T10:53:33;12.00;99.90
53053;DHT22;38934;52.690;6.184;2023-03-19T10:56:09;12.10;99.90
53053;DHT22;38934;52.690;6.184;2023-03-19T10:58:40;12.20;99.90
53053;DHT22;38934;52.690;6.184;2023-03-19T11:01:19;12.30;99.90
53053;DHT22;38934;52.690;6.184;2023-03-19T11:03:55;12.40;99.90
53053;DHT22;38934;52.690;6.184;2023-03-19T11:06:35;12.40;99.90
53053;DHT22;38934;52.690;6.184;2023-03-19T11:11:49;12.80;99.90
53053;DHT22;38934;52.690;6.184;2023-03-19T11:19:54;12.70;99.90
53053;DHT22;38934;52.690;6.184;2023-03-19T11:22:26;12.80;99.90
53053;DHT22;38934;52.690;6.184;2023-03-19T11:25:02;12.80;99.90
53053;DHT22;38934;52.690;6.184;2023-03-19T11:27:33;12.80;99.90
53053;DHT22;38934;52.690;6.184;2023-03-19T11:30:01;12.90;99.90
53053;DHT22;38934;52.690;6.184;2023-03-19T11:35:23;13.10;99.90
53053;DHT22;38934;52.690;6.184;2023-03-19T11:37:59;13.40;99.90
53053;DHT22;38934;52.690;6.184;2023-03-19T11:42:58;13.30;99.90
53053;DHT22;38934;52.690;6.184;2023-03-19T11:56:31;13.40;99.90
53053;DHT22;38934;52.690;6.184;2023-03-19T12:04:57;13.20;99.90
53053;DHT22;38934;52.690;6.184;2023-03-19T12:19:15;13.00;99.90
53053;DHT22;38934;52.690;6.184;2023-03-19T12:36:36;13.50;99.90
53053;DHT22;38934;52.690;6.184;2023-03-19T12:39:12;13.50;99.90
53053;DHT22;38934;52.690;6.184;2023-03-19T12:41:42;13.60;99.90
53053;DHT22;38934;52.690;6.184;2023-03-19T12:44:25;13.90;99.90
53053;DHT22;38934;52.690;6.184;2023-03-19T12:47:02;13.70;99.90
53053;DHT22;38934;52.690;6.184;2023-03-19T12:54:40;13.60;99.90
53053;DHT22;38934;52.690;6.184;2023-03-19T12:57:16;13.50;99.90
53053;DHT22;38934;52.690;6.184;2023-03-19T12:59:57;13.50;99.90
53053;DHT22;38934;52.690;6.184;2023-03-19T13:02:40;13.40;99.90
53053;DHT22;38934;52.690;6.184;2023-03-19T13:10:24;13.30;99.90
53053;DHT22;38934;52.690;6.184;2023-03-19T13:12:52;13.30;99.90
53053;DHT22;38934;52.690;6.184;2023-03-19T13:15:36;13.40;99.90
53053;DHT22;38934;52.690;6.184;2023-03-19T13:18:25;13.40;99.90
53053;DHT22;38934;52.690;6.184;2023-03-19T13:21:25;13.20;99.90
53053;DHT22;38934;52.690;6.184;2023-03-19T13:24:39;13.20;99.90
53053;DHT22;38934;52.690;6.184;2023-03-19T13:26:58;13.20;99.90
53053;DHT22;38934;52.690;6.184;2023-03-19T13:29:27;13.40;99.90
53053;DHT22;38934;52.690;6.184;2023-03-19T13:32:03;13.00;99.90
53053;DHT22;38934;52.690;6.184;2023-03-19T13:34:33;12.80;99.90
53053;DHT22;38934;52.690;6.184;2023-03-19T13:37:07;13.00;99.90
53053;DHT22;38934;52.690;6.184;2023-03-19T13:39:36;12.60;99.90
53053;DHT22;38934;52.690;6.184;2023-03-19T13:42:08;12.60;99.90
53053;DHT22;38934;52.690;6.184;2023-03-19T13:44:39;12.60;99.90
53053;DHT22;38934;52.690;6.184;2023-03-19T13:47:38;12.70;99.90
53053;DHT22;38934;52.690;6.184;2023-03-19T14:05:46;12.90;99.90
53053;DHT22;38934;52.690;6.184;2023-03-19T14:08:20;13.20;99.90
53053;DHT22;38934;52.690;6.184;2023-03-19T14:10:48;12.90;99.90
53053;DHT22;38934;52.690;6.184;2023-03-19T14:13:40;12.70;99.90
53053;DHT22;38934;52.690;6.184;2023-03-19T14:16:15;12.70;99.90
53053;DHT22;38934;52.690;6.184;2023-03-19T14:18:42;12.70;99.90
53053;DHT22;38934;52.690;6.184;2023-03-19T14:21:13;12.70;99.90
53053;DHT22;38934;52.690;6.184;2023-03-19T14:23:41;12.70;99.90
53053;DHT22;38934;52.690;6.184;2023-03-19T14:26:23;12.70;99.90
53053;DHT22;38934;52.690;6.184;2023-03-19T14:29:03;12.70;99.90
53053;DHT22;38934;52.690;6.184;2023-03-19T14:36:40;12.50;99.90
53053;DHT22;38934;52.690;6.184;2023-03-19T14:39:23;12.40;99.90
53053;DHT22;38934;52.690;6.184;2023-03-19T14:42:11;12.40;99.90
53053;DHT22;38934;52.690;6.184;2023-03-19T14:47:35;12.20;99.90
53053;DHT22;38934;52.690;6.184;2023-03-19T14:52:48;12.80;99.90
53053;DHT22;38934;52.690;6.184;2023-03-19T14:55:16;12.10;99.90
53053;DHT22;38934;52.690;6.184;2023-03-19T14:57:42;12.00;99.90
53053;DHT22;38934;52.690;6.184;2023-03-19T15:00:18;12.00;99.90
53053;DHT22;38934;52.690;6.184;2023-03-19T15:02:47;12.00;99.90
53053;DHT22;38934;52.690;6.184;2023-03-19T15:05:30;11.90;99.90
53053;DHT22;38934;52.690;6.184;2023-03-19T15:08:08;12.40;99.90
53053;DHT22;38934;52.690;6.184;2023-03-19T15:14:02;11.70;99.90
53053;DHT22;38934;52.690;6.184;2023-03-19T15:16:43;11.70;99.90
53053;DHT22;38934;52.690;6.184;2023-03-19T15:19:11;11.70;99.90
53053;DHT22;38934;52.690;6.184;2023-03-19T15:21:39;11.60;99.90
53053;DHT22;38934;52.690;6.184;2023-03-19T15:24:06;12.20;99.90
53053;DHT22;38934;52.690;6.184;2023-03-19T15:26:41;11.50;99.90
53053;DHT22;38934;52.690;6.184;2023-03-19T15:29:08;11.40;99.90
53053;DHT22;38934;52.690;6.184;2023-03-19T15:31:48;11.40;99.90
53053;DHT22;38934;52.690;6.184;2023-03-19T15:34:23;11.40;99.90
53053;DHT22;38934;52.690;6.184;2023-03-19T15:37:20;11.30;99.90
53053;DHT22;38934;52.690;6.184;2023-03-19T15:39:49;11.30;99.90
53053;DHT22;38934;52.690;6.184;2023-03-19T15:42:25;11.90;99.90
53053;DHT22;38934;52.690;6.184;2023-03-19T15:45:10;11.30;99.90
53053;DHT22;38934;52.690;6.184;2023-03-19T15:47:54;11.20;99.90
53053;DHT22;38934;52.690;6.184;2023-03-19T15:50:24;12.00;99.90
53053;DHT22;38934;52.690;6.184;2023-03-19T15:53:23;11.20;99.90
53053;DHT22;38934;52.690;6.184;2023-03-19T15:55:49;11.20;99.90
53053;DHT22;38934;52.690;6.184;2023-03-19T15:58:19;11.10;99.90
53053;DHT22;38934;52.690;6.184;2023-03-19T16:00:45;11.10;99.90
53053;DHT22;38934;52.690;6.184;2023-03-19T16:03:17;11.10;99.90
53053;DHT22;38934;52.690;6.184;2023-03-19T16:05:43;11.00;99.90
53053;DHT22;38934;52.690;6.184;2023-03-19T16:08:26;11.10;99.90
53053;DHT22;38934;52.690;6.184;2023-03-19T16:10:54;11.30;99.90
53053;DHT22;38934;52.690;6.184;2023-03-19T16:13:40;11.60;99.90
53053;DHT22;38934;52.690;6.184;2023-03-19T16:16:18;11.10;99.90
53053;DHT22;38934;52.690;6.184;2023-03-19T16:18:52;11.00;99.90
53053;DHT22;38934;52.690;6.184;2023-03-19T16:21:37;11.00;99.90
53053;DHT22;38934;52.690;6.184;2023-03-19T16:24:08;11.00;99.90
53053;DHT22;38934;52.690;6.184;2023-03-19T16:26:42;11.60;99.90
53053;DHT22;38934;52.690;6.184;2023-03-19T16:29:36;11.00;99.90
53053;DHT22;38934;52.690;6.184;2023-03-19T16:34:44;11.00;99.90
53053;DHT22;38934;52.690;6.184;2023-03-19T16:37:44;10.90;99.90
53053;DHT22;38934;52.690;6.184;2023-03-19T16:42:52;11.00;99.90
53053;DHT22;38934;52.690;6.184;2023-03-19T16:45:21;11.00;99.90
53053;DHT22;38934;52.690;6.184;2023-03-19T16:47:53;11.00;99.90
53053;DHT22;38934;52.690;6.184;2023-03-19T16:50:37;11.30;99.90
53053;DHT22;38934;52.690;6.184;2023-03-19T16:53:13;10.90;99.90
53053;DHT22;38934;52.690;6.184;2023-03-19T16:55:43;10.90;99.90
53053;DHT22;38934;52.690;6.184;2023-03-19T16:58:35;10.90;99.90
53053;DHT22;38934;52.690;6.184;2023-03-19T17:01:17;10.90;99.90
53053;DHT22;38934;52.690;6.184;2023-03-19T17:03:44;10.90;99.90
53053;DHT22;38934;52.690;6.184;2023-03-19T17:06:11;10.90;99.90
53053;DHT22;38934;52.690;6.184;2023-03-19T17:08:40;10.90;99.90
53053;DHT22;38934;52.690;6.184;2023-03-19T17:11:08;11.10;99.90
53053;DHT22;38934;52.690;6.184;2023-03-19T17:13:38;11.80;99.90
53053;DHT22;38934;52.690;6.184;2023-03-19T17:16:06;10.80;99.90
53053;DHT22;38934;52.690;6.184;2023-03-19T17:18:35;10.90;99.90
53053;DHT22;38934;52.690;6.184;2023-03-19T17:21:11;10.80;99.90
53053;DHT22;38934;52.690;6.184;2023-03-19T17:23:37;10.80;99.90
53053;DHT22;38934;52.690;6.184;2023-03-19T17:26:16;10.80;99.90
53053;DHT22;38934;52.690;6.184;2023-03-19T17:28:43;10.80;99.90
53053;DHT22;38934;52.690;6.184;2023-03-19T17:31:27;10.80;99.90
53053;DHT22;38934;52.690;6.184;2023-03-19T17:34:01;10.70;99.90
53053;DHT22;38934;52.690;6.184;2023-03-19T17:36:30;10.70;99.90
53053;DHT22;38934;52.690;6.184;2023-03-19T17:38:56;10.70;99.90
53053;DHT22;38934;52.690;6.184;2023-03-19T17:41:22;10.60;99.90
53053;DHT22;38934;52.690;6.184;2023-03-19T17:43:48;10.50;99.90
53053;DHT22;38934;52.690;6.184;2023-03-19T17:46:24;10.50;99.90
53053;DHT22;38934;52.690;6.184;2023-03-19T17:48:51;11.00;99.90
53053;DHT22;38934;52.690;6.184;2023-03-19T17:51:17;10.40;99.90